sensor_id;sensor_type;location;lat;lon;timestamp;P1;durP1;ratioP1;P2;durP2;ratioP2
58446;SDS011;44240;51.840;7.258;2022-09-09T00:00:29;4.30;;;1.98;;
58446;SDS011;44240;51.840;7.258;2022-09-09T00:03:03;5.85;;;2.60;;
58446;SDS011;44240;51.840;7.258;2022-09-09T00:05:55;4.72;;;1.95;;
58446;SDS011;44240;51.840;7.258;2022-09-09T00:08:21;2.90;;;1.90;;
58446;SDS011;44240;51.840;7.258;2022-09-09T00:10:57;6.60;;;1.90;;
58446;SDS011;44240;51.840;7.258;2022-09-09T00:13:31;3.25;;;2.13;;
58446;SDS011;44240;51.840;7.258;2022-09-09T00:16:19;3.58;;;1.95;;
58446;SDS011;44240;51.840;7.258;2022-09-09T00:19:01;3.40;;;1.40;;
58446;SDS011;44240;51.840;7.258;2022-09-09T00:24:42;2.25;;;1.90;;
58446;SDS011;44240;51.840;7.258;2022-09-09T00:27:30;1.90;;;1.60;;
58446;SDS011;44240;51.840;7.258;2022-09-09T00:33:30;3.08;;;1.40;;
58446;SDS011;44240;51.840;7.258;2022-09-09T00:35:41;4.07;;;1.30;;
58446;SDS011;44240;51.840;7.258;2022-09-09T00:38:14;3.45;;;1.45;;
58446;SDS011;44240;51.840;7.258;2022-09-09T00:40:53;1.88;;;1.70;;
58446;SDS011;44240;51.840;7.258;2022-09-09T00:51:30;2.10;;;1.40;;
58446;SDS011;44240;51.840;7.258;2022-09-09T00:54:15;1.20;;;1.10;;
58446;SDS011;44240;51.840;7.258;2022-09-09T00:57:07;1.77;;;1.42;;
58446;SDS011;44240;51.840;7.258;2022-09-09T01:00:14;1.58;;;1.48;;
58446;SDS011;44240;51.840;7.258;2022-09-09T01:11:23;1.65;;;1.52;;
58446;SDS011;44240;51.840;7.258;2022-09-09T01:16:44;3.13;;;2.10;;
58446;SDS011;44240;51.840;7.258;2022-09-09T01:19:14;3.35;;;1.75;;
58446;SDS011;44240;51.840;7.258;2022-09-09T01:21:56;4.18;;;1.77;;
58446;SDS011;44240;51.840;7.258;2022-09-09T01:27:20;2.95;;;2.13;;
58446;SDS011;44240;51.840;7.258;2022-09-09T01:29:48;5.05;;;1.92;;
58446;SDS011;44240;51.840;7.258;2022-09-09T01:35:15;2.03;;;1.83;;
58446;SDS011;44240;51.840;7.258;2022-09-09T01:37:57;5.07;;;2.30;;
58446;SDS011;44240;51.840;7.258;2022-09-09T01:40:24;2.30;;;2.08;;
58446;SDS011;44240;51.840;7.258;2022-09-09T01:42:50;3.35;;;2.03;;
58446;SDS011;44240;51.840;7.258;2022-09-09T01:45:16;4.47;;;2.67;;
58446;SDS011;44240;51.840;7.258;2022-09-09T01:47:42;2.00;;;1.80;;
58446;SDS011;44240;51.840;7.258;2022-09-09T01:50:10;3.08;;;2.22;;
58446;SDS011;44240;51.840;7.258;2022-09-09T01:52:37;3.03;;;1.75;;
58446;SDS011;44240;51.840;7.258;2022-09-09T01:55:04;3.10;;;1.73;;
58446;SDS011;44240;51.840;7.258;2022-09-09T01:57:33;3.28;;;1.80;;
58446;SDS011;44240;51.840;7.258;2022-09-09T02:00:10;3.65;;;1.60;;
58446;SDS011;44240;51.840;7.258;2022-09-09T02:05:39;5.38;;;1.60;;
58446;SDS011;44240;51.840;7.258;2022-09-09T02:08:33;8.50;;;1.95;;
58446;SDS011;44240;51.840;7.258;2022-09-09T02:11:18;4.47;;;1.48;;
58446;SDS011;44240;51.840;7.258;2022-09-09T02:13:47;4.13;;;1.50;;
58446;SDS011;44240;51.840;7.258;2022-09-09T02:16:23;3.22;;;1.60;;
58446;SDS011;44240;51.840;7.258;2022-09-09T02:19:01;2.45;;;1.60;;
58446;SDS011;44240;51.840;7.258;2022-09-09T02:21:31;2.45;;;1.42;;
58446;SDS011;44240;51.840;7.258;2022-09-09T02:24:00;1.75;;;1.63;;
58446;SDS011;44240;51.840;7.258;2022-09-09T02:26:29;2.80;;;1.75;;
58446;SDS011;44240;51.840;7.258;2022-09-09T02:28:58;2.03;;;1.52;;
58446;SDS011;44240;51.840;7.258;2022-09-09T02:31:27;4.28;;;1.83;;
58446;SDS011;44240;51.840;7.258;2022-09-09T02:33:57;5.18;;;2.13;;
58446;SDS011;44240;51.840;7.258;2022-09-09T02:36:26;3.45;;;2.00;;
58446;SDS011;44240;51.840;7.258;2022-09-09T02:38:58;5.50;;;2.00;;
58446;SDS011;44240;51.840;7.258;2022-09-09T02:41:26;4.68;;;2.08;;
58446;SDS011;44240;51.840;7.258;2022-09-09T02:43:56;2.72;;;1.45;;
58446;SDS011;44240;51.840;7.258;2022-09-09T02:48:59;1.67;;;1.58;;
58446;SDS011;44240;51.840;7.258;2022-09-09T02:54:10;3.42;;;2.15;;
58446;SDS011;44240;51.840;7.258;2022-09-09T02:56:45;3.10;;;2.05;;
58446;SDS011;44240;51.840;7.258;2022-09-09T02:59:15;3.58;;;1.95;;
58446;SDS011;44240;51.840;7.258;2022-09-09T03:01:41;4.82;;;2.85;;
58446;SDS011;44240;51.840;7.258;2022-09-09T03:04:07;5.28;;;2.30;;
58446;SDS011;44240;51.840;7.258;2022-09-09T03:06:32;11.05;;;2.60;;
58446;SDS011;44240;51.840;7.258;2022-09-09T03:08:58;2.50;;;2.03;;
58446;SDS011;44240;51.840;7.258;2022-09-09T03:11:25;3.70;;;2.20;;
58446;SDS011;44240;51.840;7.258;2022-09-09T03:13:52;4.20;;;2.20;;
58446;SDS011;44240;51.840;7.258;2022-09-09T03:16:20;12.07;;;2.75;;
58446;SDS011;44240;51.840;7.258;2022-09-09T03:18:49;4.55;;;2.22;;
58446;SDS011;44240;51.840;7.258;2022-09-09T03:21:15;4.78;;;2.40;;
58446;SDS011;44240;51.840;7.258;2022-09-09T03:23:41;3.17;;;2.00;;
58446;SDS011;44240;51.840;7.258;2022-09-09T03:26:07;2.90;;;1.88;;
58446;SDS011;44240;51.840;7.258;2022-09-09T03:28:33;3.38;;;2.15;;
58446;SDS011;44240;51.840;7.258;2022-09-09T03:31:02;3.08;;;2.20;;
58446;SDS011;44240;51.840;7.258;2022-09-09T03:33:30;3.42;;;2.20;;
58446;SDS011;44240;51.840;7.258;2022-09-09T03:35:56;3.42;;;1.80;;
58446;SDS011;44240;51.840;7.258;2022-09-09T03:38:25;2.47;;;2.28;;
58446;SDS011;44240;51.840;7.258;2022-09-09T03:40:51;5.18;;;2.35;;
58446;SDS011;44240;51.840;7.258;2022-09-09T03:43:22;3.78;;;2.03;;
58446;SDS011;44240;51.840;7.258;2022-09-09T03:45:49;5.55;;;2.42;;
58446;SDS011;44240;51.840;7.258;2022-09-09T03:48:15;2.00;;;1.83;;
58446;SDS011;44240;51.840;7.258;2022-09-09T03:50:45;2.00;;;1.85;;
58446;SDS011;44240;51.840;7.258;2022-09-09T03:53:15;2.35;;;2.10;;
58446;SDS011;44240;51.840;7.258;2022-09-09T03:55:49;4.25;;;2.05;;
58446;SDS011;44240;51.840;7.258;2022-09-09T03:58:17;6.97;;;2.33;;
58446;SDS011;44240;51.840;7.258;2022-09-09T04:00:44;3.22;;;2.03;;
58446;SDS011;44240;51.840;7.258;2022-09-09T04:03:25;2.30;;;1.70;;
58446;SDS011;44240;51.840;7.258;2022-09-09T04:05:51;2.30;;;2.10;;
58446;SDS011;44240;51.840;7.258;2022-09-09T04:08:18;2.08;;;1.73;;
58446;SDS011;44240;51.840;7.258;2022-09-09T04:10:48;5.55;;;1.95;;
58446;SDS011;44240;51.840;7.258;2022-09-09T04:13:14;3.00;;;1.90;;
58446;SDS011;44240;51.840;7.258;2022-09-09T04:15:41;3.95;;;2.10;;
58446;SDS011;44240;51.840;7.258;2022-09-09T04:18:07;3.42;;;2.00;;
58446;SDS011;44240;51.840;7.258;2022-09-09T04:20:32;3.50;;;1.73;;
58446;SDS011;44240;51.840;7.258;2022-09-09T04:22:58;4.68;;;2.20;;
58446;SDS011;44240;51.840;7.258;2022-09-09T04:25:24;5.22;;;2.03;;
58446;SDS011;44240;51.840;7.258;2022-09-09T04:27:53;7.90;;;2.45;;
58446;SDS011;44240;51.840;7.258;2022-09-09T04:30:19;2.58;;;2.03;;
58446;SDS011;44240;51.840;7.258;2022-09-09T04:32:45;7.70;;;2.58;;
58446;SDS011;44240;51.840;7.258;2022-09-09T04:35:11;4.93;;;2.40;;
58446;SDS011;44240;51.840;7.258;2022-09-09T04:37:37;2.65;;;2.38;;
58446;SDS011;44240;51.840;7.258;2022-09-09T04:40:02;3.03;;;2.38;;
58446;SDS011;44240;51.840;7.258;2022-09-09T04:42:28;5.75;;;2.53;;
58446;SDS011;44240;51.840;7.258;2022-09-09T04:44:53;6.07;;;2.70;;
58446;SDS011;44240;51.840;7.258;2022-09-09T04:47:19;4.22;;;3.13;;
58446;SDS011;44240;51.840;7.258;2022-09-09T04:49:45;6.20;;;2.70;;
58446;SDS011;44240;51.840;7.258;2022-09-09T04:52:10;3.33;;;3.03;;
58446;SDS011;44240;51.840;7.258;2022-09-09T04:54:36;3.95;;;2.60;;
58446;SDS011;44240;51.840;7.258;2022-09-09T04:57:02;4.70;;;2.75;;
58446;SDS011;44240;51.840;7.258;2022-09-09T04:59:27;5.10;;;2.60;;
58446;SDS011;44240;51.840;7.258;2022-09-09T05:01:53;7.60;;;3.53;;
58446;SDS011;44240;51.840;7.258;2022-09-09T05:04:20;5.97;;;3.45;;
58446;SDS011;44240;51.840;7.258;2022-09-09T05:06:45;4.65;;;3.15;;
58446;SDS011;44240;51.840;7.258;2022-09-09T05:09:11;4.28;;;3.10;;
58446;SDS011;44240;51.840;7.258;2022-09-09T05:11:36;3.30;;;3.00;;
58446;SDS011;44240;51.840;7.258;2022-09-09T05:14:03;6.82;;;3.10;;
58446;SDS011;44240;51.840;7.258;2022-09-09T05:16:29;4.13;;;3.00;;
58446;SDS011;44240;51.840;7.258;2022-09-09T05:18:55;9.55;;;3.33;;
58446;SDS011;44240;51.840;7.258;2022-09-09T05:21:22;7.65;;;3.30;;
58446;SDS011;44240;51.840;7.258;2022-09-09T05:23:50;5.65;;;3.33;;
58446;SDS011;44240;51.840;7.258;2022-09-09T05:26:17;4.47;;;3.42;;
58446;SDS011;44240;51.840;7.258;2022-09-09T05:28:45;7.80;;;3.55;;
58446;SDS011;44240;51.840;7.258;2022-09-09T05:31:11;7.15;;;3.13;;
58446;SDS011;44240;51.840;7.258;2022-09-09T05:33:38;5.20;;;3.17;;
58446;SDS011;44240;51.840;7.258;2022-09-09T05:36:09;8.70;;;3.60;;
58446;SDS011;44240;51.840;7.258;2022-09-09T05:38:38;4.35;;;3.20;;
58446;SDS011;44240;51.840;7.258;2022-09-09T05:41:05;5.45;;;3.35;;
58446;SDS011;44240;51.840;7.258;2022-09-09T05:43:31;4.78;;;3.05;;
58446;SDS011;44240;51.840;7.258;2022-09-09T05:46:01;4.72;;;3.10;;
58446;SDS011;44240;51.840;7.258;2022-09-09T05:48:28;5.18;;;3.65;;
58446;SDS011;44240;51.840;7.258;2022-09-09T05:50:54;6.30;;;3.60;;
58446;SDS011;44240;51.840;7.258;2022-09-09T05:53:20;4.85;;;3.10;;
58446;SDS011;44240;51.840;7.258;2022-09-09T05:55:46;4.53;;;3.40;;
58446;SDS011;44240;51.840;7.258;2022-09-09T05:58:12;6.15;;;3.10;;
58446;SDS011;44240;51.840;7.258;2022-09-09T06:00:39;5.63;;;3.25;;
58446;SDS011;44240;51.840;7.258;2022-09-09T06:03:05;5.60;;;3.30;;
58446;SDS011;44240;51.840;7.258;2022-09-09T06:05:30;3.63;;;3.08;;
58446;SDS011;44240;51.840;7.258;2022-09-09T06:07:56;5.18;;;3.30;;
58446;SDS011;44240;51.840;7.258;2022-09-09T06:10:21;5.28;;;3.03;;
58446;SDS011;44240;51.840;7.258;2022-09-09T06:12:47;5.35;;;3.35;;
58446;SDS011;44240;51.840;7.258;2022-09-09T06:15:13;6.93;;;3.20;;
58446;SDS011;44240;51.840;7.258;2022-09-09T06:17:38;4.38;;;2.80;;
58446;SDS011;44240;51.840;7.258;2022-09-09T06:20:04;5.35;;;2.95;;
58446;SDS011;44240;51.840;7.258;2022-09-09T06:22:30;5.57;;;3.33;;
58446;SDS011;44240;51.840;7.258;2022-09-09T06:24:56;5.80;;;3.10;;
58446;SDS011;44240;51.840;7.258;2022-09-09T06:27:21;5.65;;;3.20;;
58446;SDS011;44240;51.840;7.258;2022-09-09T06:29:47;6.90;;;3.40;;
58446;SDS011;44240;51.840;7.258;2022-09-09T06:32:13;5.80;;;2.70;;
58446;SDS011;44240;51.840;7.258;2022-09-09T06:34:38;6.43;;;3.10;;
58446;SDS011;44240;51.840;7.258;2022-09-09T06:37:04;7.22;;;3.10;;
58446;SDS011;44240;51.840;7.258;2022-09-09T06:39:31;8.10;;;3.17;;
58446;SDS011;44240;51.840;7.258;2022-09-09T06:41:57;7.75;;;3.30;;
58446;SDS011;44240;51.840;7.258;2022-09-09T06:44:23;6.18;;;3.00;;
58446;SDS011;44240;51.840;7.258;2022-09-09T06:46:51;8.65;;;3.08;;
58446;SDS011;44240;51.840;7.258;2022-09-09T06:49:17;7.50;;;3.50;;
58446;SDS011;44240;51.840;7.258;2022-09-09T06:51:42;5.80;;;2.65;;
58446;SDS011;44240;51.840;7.258;2022-09-09T06:54:08;9.57;;;3.65;;
58446;SDS011;44240;51.840;7.258;2022-09-09T06:56:35;6.93;;;2.97;;
58446;SDS011;44240;51.840;7.258;2022-09-09T06:59:05;3.92;;;3.42;;
58446;SDS011;44240;51.840;7.258;2022-09-09T07:01:35;5.78;;;2.88;;
58446;SDS011;44240;51.840;7.258;2022-09-09T07:04:02;8.30;;;3.20;;
58446;SDS011;44240;51.840;7.258;2022-09-09T07:06:33;5.38;;;3.25;;
58446;SDS011;44240;51.840;7.258;2022-09-09T07:09:01;7.63;;;3.38;;
58446;SDS011;44240;51.840;7.258;2022-09-09T07:11:30;8.13;;;2.80;;
58446;SDS011;44240;51.840;7.258;2022-09-09T07:13:57;6.45;;;3.45;;
58446;SDS011;44240;51.840;7.258;2022-09-09T07:16:24;4.50;;;3.10;;
58446;SDS011;44240;51.840;7.258;2022-09-09T07:18:50;3.60;;;2.95;;
58446;SDS011;44240;51.840;7.258;2022-09-09T07:21:17;9.27;;;3.58;;
58446;SDS011;44240;51.840;7.258;2022-09-09T07:23:43;6.30;;;2.97;;
58446;SDS011;44240;51.840;7.258;2022-09-09T07:26:10;4.22;;;3.08;;
58446;SDS011;44240;51.840;7.258;2022-09-09T07:28:37;5.28;;;2.83;;
58446;SDS011;44240;51.840;7.258;2022-09-09T07:31:03;6.70;;;3.00;;
58446;SDS011;44240;51.840;7.258;2022-09-09T07:33:30;3.80;;;2.72;;
58446;SDS011;44240;51.840;7.258;2022-09-09T07:36:05;7.28;;;2.60;;
58446;SDS011;44240;51.840;7.258;2022-09-09T07:38:43;10.32;;;3.75;;
58446;SDS011;44240;51.840;7.258;2022-09-09T07:41:11;4.72;;;2.58;;
58446;SDS011;44240;51.840;7.258;2022-09-09T07:43:39;5.60;;;2.70;;
58446;SDS011;44240;51.840;7.258;2022-09-09T07:46:07;5.63;;;2.75;;
58446;SDS011;44240;51.840;7.258;2022-09-09T07:48:34;9.75;;;3.10;;
58446;SDS011;44240;51.840;7.258;2022-09-09T07:51:10;8.13;;;2.70;;
58446;SDS011;44240;51.840;7.258;2022-09-09T07:53:41;6.18;;;2.58;;
58446;SDS011;44240;51.840;7.258;2022-09-09T07:56:11;9.18;;;2.63;;
58446;SDS011;44240;51.840;7.258;2022-09-09T07:58:39;6.80;;;2.85;;
58446;SDS011;44240;51.840;7.258;2022-09-09T08:01:09;8.77;;;2.90;;
58446;SDS011;44240;51.840;7.258;2022-09-09T08:03:36;5.45;;;2.83;;
58446;SDS011;44240;51.840;7.258;2022-09-09T08:06:03;5.03;;;2.35;;
58446;SDS011;44240;51.840;7.258;2022-09-09T08:08:31;6.13;;;2.53;;
58446;SDS011;44240;51.840;7.258;2022-09-09T08:11:07;6.75;;;2.60;;
58446;SDS011;44240;51.840;7.258;2022-09-09T08:13:35;4.82;;;2.22;;
58446;SDS011;44240;51.840;7.258;2022-09-09T08:16:09;3.65;;;2.13;;
58446;SDS011;44240;51.840;7.258;2022-09-09T08:18:35;6.63;;;2.30;;
58446;SDS011;44240;51.840;7.258;2022-09-09T08:21:08;4.57;;;2.05;;
58446;SDS011;44240;51.840;7.258;2022-09-09T08:23:37;6.10;;;2.45;;
58446;SDS011;44240;51.840;7.258;2022-09-09T08:26:05;5.13;;;2.00;;
58446;SDS011;44240;51.840;7.258;2022-09-09T08:28:33;3.65;;;1.80;;
58446;SDS011;44240;51.840;7.258;2022-09-09T08:33:41;5.60;;;2.25;;
58446;SDS011;44240;51.840;7.258;2022-09-09T08:36:10;9.73;;;2.28;;
58446;SDS011;44240;51.840;7.258;2022-09-09T08:38:38;7.88;;;2.38;;
58446;SDS011;44240;51.840;7.258;2022-09-09T08:41:07;5.47;;;2.03;;
58446;SDS011;44240;51.840;7.258;2022-09-09T08:49:35;8.15;;;2.75;;
58446;SDS011;44240;51.840;7.258;2022-09-09T08:52:19;4.85;;;2.13;;
58446;SDS011;44240;51.840;7.258;2022-09-09T08:54:56;9.93;;;2.90;;
58446;SDS011;44240;51.840;7.258;2022-09-09T08:57:28;3.78;;;2.20;;
58446;SDS011;44240;51.840;7.258;2022-09-09T08:59:56;4.15;;;2.00;;
58446;SDS011;44240;51.840;7.258;2022-09-09T09:02:38;7.95;;;1.90;;
58446;SDS011;44240;51.840;7.258;2022-09-09T09:07:59;6.38;;;2.13;;
58446;SDS011;44240;51.840;7.258;2022-09-09T09:10:45;3.13;;;2.00;;
58446;SDS011;44240;51.840;7.258;2022-09-09T09:13:14;2.17;;;1.48;;
58446;SDS011;44240;51.840;7.258;2022-09-09T09:15:54;6.00;;;1.85;;
58446;SDS011;44240;51.840;7.258;2022-09-09T09:18:25;6.28;;;2.10;;
58446;SDS011;44240;51.840;7.258;2022-09-09T09:21:12;6.20;;;2.63;;
58446;SDS011;44240;51.840;7.258;2022-09-09T09:26:41;4.43;;;1.67;;
58446;SDS011;44240;51.840;7.258;2022-09-09T09:29:10;5.18;;;1.67;;
58446;SDS011;44240;51.840;7.258;2022-09-09T09:31:54;6.53;;;1.77;;
58446;SDS011;44240;51.840;7.258;2022-09-09T09:34:23;9.30;;;1.70;;
58446;SDS011;44240;51.840;7.258;2022-09-09T09:36:56;7.30;;;1.63;;
58446;SDS011;44240;51.840;7.258;2022-09-09T09:39:26;5.30;;;1.67;;
58446;SDS011;44240;51.840;7.258;2022-09-09T09:42:07;5.30;;;1.70;;
58446;SDS011;44240;51.840;7.258;2022-09-09T09:44:39;6.43;;;1.92;;
58446;SDS011;44240;51.840;7.258;2022-09-09T09:47:06;6.90;;;2.00;;
58446;SDS011;44240;51.840;7.258;2022-09-09T09:49:39;4.15;;;1.65;;
58446;SDS011;44240;51.840;7.258;2022-09-09T09:52:21;5.57;;;1.30;;
58446;SDS011;44240;51.840;7.258;2022-09-09T09:54:48;5.10;;;1.40;;
58446;SDS011;44240;51.840;7.258;2022-09-09T09:57:15;5.95;;;1.77;;
58446;SDS011;44240;51.840;7.258;2022-09-09T09:59:42;4.68;;;2.38;;
58446;SDS011;44240;51.840;7.258;2022-09-09T10:04:44;5.15;;;1.40;;
58446;SDS011;44240;51.840;7.258;2022-09-09T10:07:11;6.20;;;1.45;;
58446;SDS011;44240;51.840;7.258;2022-09-09T10:09:41;4.82;;;1.25;;
58446;SDS011;44240;51.840;7.258;2022-09-09T10:15:26;7.78;;;1.30;;
58446;SDS011;44240;51.840;7.258;2022-09-09T10:18:04;3.03;;;1.08;;
58446;SDS011;44240;51.840;7.258;2022-09-09T10:23:41;4.10;;;1.25;;
58446;SDS011;44240;51.840;7.258;2022-09-09T10:28:54;5.47;;;1.17;;
58446;SDS011;44240;51.840;7.258;2022-09-09T10:40:36;4.53;;;1.40;;
58446;SDS011;44240;51.840;7.258;2022-09-09T10:43:17;3.00;;;1.42;;
58446;SDS011;44240;51.840;7.258;2022-09-09T10:57:05;4.03;;;1.38;;
58446;SDS011;44240;51.840;7.258;2022-09-09T10:59:40;4.25;;;1.45;;
58446;SDS011;44240;51.840;7.258;2022-09-09T11:02:13;4.47;;;1.70;;
58446;SDS011;44240;51.840;7.258;2022-09-09T11:04:46;4.05;;;1.80;;
58446;SDS011;44240;51.840;7.258;2022-09-09T11:07:18;5.00;;;1.50;;
58446;SDS011;44240;51.840;7.258;2022-09-09T11:09:58;3.72;;;1.52;;
58446;SDS011;44240;51.840;7.258;2022-09-09T11:12:27;4.28;;;1.55;;
58446;SDS011;44240;51.840;7.258;2022-09-09T11:15:06;4.65;;;1.77;;
58446;SDS011;44240;51.840;7.258;2022-09-09T11:17:40;5.15;;;1.77;;
58446;SDS011;44240;51.840;7.258;2022-09-09T11:22:43;3.78;;;1.63;;
58446;SDS011;44240;51.840;7.258;2022-09-09T11:25:17;1.90;;;1.77;;
58446;SDS011;44240;51.840;7.258;2022-09-09T11:36:06;3.55;;;1.63;;
58446;SDS011;44240;51.840;7.258;2022-09-09T11:38:44;2.75;;;0.98;;
58446;SDS011;44240;51.840;7.258;2022-09-09T11:41:16;3.63;;;1.52;;
58446;SDS011;44240;51.840;7.258;2022-09-09T11:43:46;3.03;;;1.23;;
58446;SDS011;44240;51.840;7.258;2022-09-09T11:46:22;5.47;;;1.05;;
58446;SDS011;44240;51.840;7.258;2022-09-09T11:49:00;3.17;;;1.00;;
58446;SDS011;44240;51.840;7.258;2022-09-09T11:51:28;1.08;;;0.95;;
58446;SDS011;44240;51.840;7.258;2022-09-09T11:54:30;4.68;;;1.45;;
58446;SDS011;44240;51.840;7.258;2022-09-09T11:56:50;2.95;;;0.98;;
58446;SDS011;44240;51.840;7.258;2022-09-09T11:59:32;3.03;;;1.00;;
58446;SDS011;44240;51.840;7.258;2022-09-09T12:01:59;2.78;;;1.10;;
58446;SDS011;44240;51.840;7.258;2022-09-09T12:05:01;3.88;;;1.50;;
58446;SDS011;44240;51.840;7.258;2022-09-09T12:10:27;3.00;;;0.98;;
58446;SDS011;44240;51.840;7.258;2022-09-09T12:15:50;3.65;;;1.13;;
58446;SDS011;44240;51.840;7.258;2022-09-09T12:18:22;2.58;;;1.05;;
58446;SDS011;44240;51.840;7.258;2022-09-09T12:23:58;3.75;;;1.20;;
58446;SDS011;44240;51.840;7.258;2022-09-09T12:26:49;3.28;;;0.88;;
58446;SDS011;44240;51.840;7.258;2022-09-09T12:40:01;1.95;;;1.10;;
58446;SDS011;44240;51.840;7.258;2022-09-09T12:42:45;3.70;;;1.58;;
58446;SDS011;44240;51.840;7.258;2022-09-09T12:45:18;3.60;;;1.00;;
58446;SDS011;44240;51.840;7.258;2022-09-09T12:50:21;3.72;;;1.45;;
58446;SDS011;44240;51.840;7.258;2022-09-09T12:52:52;3.72;;;1.00;;
58446;SDS011;44240;51.840;7.258;2022-09-09T12:55:34;2.92;;;1.15;;
58446;SDS011;44240;51.840;7.258;2022-09-09T12:58:01;2.95;;;1.17;;
58446;SDS011;44240;51.840;7.258;2022-09-09T13:00:31;6.60;;;1.50;;
58446;SDS011;44240;51.840;7.258;2022-09-09T13:03:01;3.25;;;1.70;;
58446;SDS011;44240;51.840;7.258;2022-09-09T13:05:39;4.03;;;1.52;;
58446;SDS011;44240;51.840;7.258;2022-09-09T13:08:06;6.22;;;1.98;;
58446;SDS011;44240;51.840;7.258;2022-09-09T13:10:43;3.33;;;1.42;;
58446;SDS011;44240;51.840;7.258;2022-09-09T13:13:21;4.93;;;1.60;;
58446;SDS011;44240;51.840;7.258;2022-09-09T13:16:00;6.38;;;1.90;;
58446;SDS011;44240;51.840;7.258;2022-09-09T13:18:28;4.68;;;2.20;;
58446;SDS011;44240;51.840;7.258;2022-09-09T13:20:56;3.00;;;1.63;;
58446;SDS011;44240;51.840;7.258;2022-09-09T13:23:23;2.80;;;1.50;;
58446;SDS011;44240;51.840;7.258;2022-09-09T13:25:59;4.72;;;1.63;;
58446;SDS011;44240;51.840;7.258;2022-09-09T13:28:28;4.95;;;1.75;;
58446;SDS011;44240;51.840;7.258;2022-09-09T13:33:31;3.58;;;1.85;;
58446;SDS011;44240;51.840;7.258;2022-09-09T13:36:04;2.30;;;1.40;;
58446;SDS011;44240;51.840;7.258;2022-09-09T13:41:19;3.85;;;1.90;;
58446;SDS011;44240;51.840;7.258;2022-09-09T13:43:46;4.57;;;1.77;;
58446;SDS011;44240;51.840;7.258;2022-09-09T13:51:38;5.43;;;1.60;;
58446;SDS011;44240;51.840;7.258;2022-09-09T13:54:09;2.67;;;1.38;;
58446;SDS011;44240;51.840;7.258;2022-09-09T13:56:36;5.25;;;1.55;;
58446;SDS011;44240;51.840;7.258;2022-09-09T13:59:04;5.35;;;1.40;;
58446;SDS011;44240;51.840;7.258;2022-09-09T14:01:31;1.92;;;1.20;;
58446;SDS011;44240;51.840;7.258;2022-09-09T14:03:59;6.30;;;1.38;;
58446;SDS011;44240;51.840;7.258;2022-09-09T14:06:25;4.15;;;1.45;;
58446;SDS011;44240;51.840;7.258;2022-09-09T14:08:51;2.85;;;1.60;;
58446;SDS011;44240;51.840;7.258;2022-09-09T14:11:17;2.63;;;1.60;;
58446;SDS011;44240;51.840;7.258;2022-09-09T14:13:43;2.42;;;1.55;;
58446;SDS011;44240;51.840;7.258;2022-09-09T14:16:09;2.88;;;1.15;;
58446;SDS011;44240;51.840;7.258;2022-09-09T14:18:34;4.45;;;1.85;;
58446;SDS011;44240;51.840;7.258;2022-09-09T14:21:00;3.75;;;1.25;;
58446;SDS011;44240;51.840;7.258;2022-09-09T14:23:27;4.78;;;1.60;;
58446;SDS011;44240;51.840;7.258;2022-09-09T14:25:54;2.80;;;1.40;;
58446;SDS011;44240;51.840;7.258;2022-09-09T14:28:20;3.15;;;1.60;;
58446;SDS011;44240;51.840;7.258;2022-09-09T14:30:46;6.57;;;1.50;;
58446;SDS011;44240;51.840;7.258;2022-09-09T14:33:13;1.42;;;0.98;;
58446;SDS011;44240;51.840;7.258;2022-09-09T14:35:39;1.88;;;1.13;;
58446;SDS011;44240;51.840;7.258;2022-09-09T14:38:06;2.47;;;1.05;;
58446;SDS011;44240;51.840;7.258;2022-09-09T14:40:32;3.90;;;1.13;;
58446;SDS011;44240;51.840;7.258;2022-09-09T14:42:59;1.98;;;1.05;;
58446;SDS011;44240;51.840;7.258;2022-09-09T14:45:25;1.52;;;0.90;;
58446;SDS011;44240;51.840;7.258;2022-09-09T14:47:51;3.80;;;0.95;;
58446;SDS011;44240;51.840;7.258;2022-09-09T14:50:18;1.63;;;0.80;;
58446;SDS011;44240;51.840;7.258;2022-09-09T14:52:44;1.92;;;0.80;;
58446;SDS011;44240;51.840;7.258;2022-09-09T14:55:10;1.77;;;0.77;;
58446;SDS011;44240;51.840;7.258;2022-09-09T14:57:36;3.55;;;0.95;;
58446;SDS011;44240;51.840;7.258;2022-09-09T15:00:05;4.80;;;1.17;;
58446;SDS011;44240;51.840;7.258;2022-09-09T15:02:32;0.98;;;0.90;;
58446;SDS011;44240;51.840;7.258;2022-09-09T15:04:57;2.50;;;1.30;;
58446;SDS011;44240;51.840;7.258;2022-09-09T15:07:23;2.28;;;1.40;;
58446;SDS011;44240;51.840;7.258;2022-09-09T15:09:49;1.35;;;1.20;;
58446;SDS011;44240;51.840;7.258;2022-09-09T15:12:15;1.27;;;0.90;;
58446;SDS011;44240;51.840;7.258;2022-09-09T15:14:43;2.47;;;1.20;;
58446;SDS011;44240;51.840;7.258;2022-09-09T15:17:09;1.30;;;1.17;;
58446;SDS011;44240;51.840;7.258;2022-09-09T15:19:35;2.38;;;0.98;;
58446;SDS011;44240;51.840;7.258;2022-09-09T15:22:02;1.58;;;1.27;;
58446;SDS011;44240;51.840;7.258;2022-09-09T15:24:28;3.45;;;1.50;;
58446;SDS011;44240;51.840;7.258;2022-09-09T15:26:53;3.33;;;1.30;;
58446;SDS011;44240;51.840;7.258;2022-09-09T15:29:19;3.03;;;1.58;;
58446;SDS011;44240;51.840;7.258;2022-09-09T15:31:44;1.55;;;1.10;;
58446;SDS011;44240;51.840;7.258;2022-09-09T15:34:11;3.95;;;1.40;;
58446;SDS011;44240;51.840;7.258;2022-09-09T15:36:45;3.47;;;1.73;;
58446;SDS011;44240;51.840;7.258;2022-09-09T15:39:12;6.15;;;1.50;;
58446;SDS011;44240;51.840;7.258;2022-09-09T15:41:40;3.63;;;1.48;;
58446;SDS011;44240;51.840;7.258;2022-09-09T15:44:07;4.03;;;1.48;;
58446;SDS011;44240;51.840;7.258;2022-09-09T15:46:36;5.18;;;1.85;;
58446;SDS011;44240;51.840;7.258;2022-09-09T15:49:20;5.97;;;1.83;;
58446;SDS011;44240;51.840;7.258;2022-09-09T15:51:51;3.28;;;1.73;;
58446;SDS011;44240;51.840;7.258;2022-09-09T15:54:22;5.05;;;3.10;;
58446;SDS011;44240;51.840;7.258;2022-09-09T15:56:53;4.63;;;2.00;;
58446;SDS011;44240;51.840;7.258;2022-09-09T15:59:21;2.60;;;1.63;;
58446;SDS011;44240;51.840;7.258;2022-09-09T16:01:50;4.78;;;1.85;;
58446;SDS011;44240;51.840;7.258;2022-09-09T16:04:16;3.80;;;2.15;;
58446;SDS011;44240;51.840;7.258;2022-09-09T16:06:48;6.32;;;2.33;;
58446;SDS011;44240;51.840;7.258;2022-09-09T16:09:15;2.92;;;1.85;;
58446;SDS011;44240;51.840;7.258;2022-09-09T16:11:40;2.35;;;1.65;;
58446;SDS011;44240;51.840;7.258;2022-09-09T16:14:06;1.33;;;1.20;;
58446;SDS011;44240;51.840;7.258;2022-09-09T16:16:32;3.05;;;1.30;;
58446;SDS011;44240;51.840;7.258;2022-09-09T16:19:00;3.63;;;1.73;;
58446;SDS011;44240;51.840;7.258;2022-09-09T16:21:39;2.58;;;1.40;;
58446;SDS011;44240;51.840;7.258;2022-09-09T16:24:07;3.47;;;1.60;;
58446;SDS011;44240;51.840;7.258;2022-09-09T16:26:34;4.07;;;1.80;;
58446;SDS011;44240;51.840;7.258;2022-09-09T16:29:01;3.47;;;1.75;;
58446;SDS011;44240;51.840;7.258;2022-09-09T16:31:28;4.13;;;1.95;;
58446;SDS011;44240;51.840;7.258;2022-09-09T16:33:54;4.60;;;1.77;;
58446;SDS011;44240;51.840;7.258;2022-09-09T16:36:29;1.40;;;1.33;;
58446;SDS011;44240;51.840;7.258;2022-09-09T16:39:00;4.70;;;2.22;;
58446;SDS011;44240;51.840;7.258;2022-09-09T16:41:47;5.65;;;1.60;;
58446;SDS011;44240;51.840;7.258;2022-09-09T16:44:13;1.45;;;1.20;;
58446;SDS011;44240;51.840;7.258;2022-09-09T16:46:42;3.25;;;1.40;;
58446;SDS011;44240;51.840;7.258;2022-09-09T16:49:09;2.42;;;1.75;;
58446;SDS011;44240;51.840;7.258;2022-09-09T16:51:37;4.10;;;1.88;;
58446;SDS011;44240;51.840;7.258;2022-09-09T16:54:05;2.33;;;1.40;;
58446;SDS011;44240;51.840;7.258;2022-09-09T16:56:33;1.92;;;1.77;;
58446;SDS011;44240;51.840;7.258;2022-09-09T16:59:02;2.33;;;1.50;;
58446;SDS011;44240;51.840;7.258;2022-09-09T17:01:30;1.95;;;1.60;;
58446;SDS011;44240;51.840;7.258;2022-09-09T17:04:02;4.65;;;1.83;;
58446;SDS011;44240;51.840;7.258;2022-09-09T17:06:30;1.50;;;1.40;;
58446;SDS011;44240;51.840;7.258;2022-09-09T17:09:00;2.35;;;1.67;;
58446;SDS011;44240;51.840;7.258;2022-09-09T17:11:28;3.17;;;1.60;;
58446;SDS011;44240;51.840;7.258;2022-09-09T17:13:55;2.63;;;1.77;;